Latest Coastal Weather Observations for Low Isles

IDQ60701

Issued at 3:21 pm EST Tuesday 28 April 2015 (issued every 10 minutes, with the page automatically refreshed every 10 minutes)

About coastal observations | Map of coastal stations | Coastal observations for QLD | Marine services | Other Formats
Station Details ID: 031037 Name: LOW ISLES LIGHTHOUSE Lat: -16.38 Lon: 145.56 Height: 2.9 m
Data from the previous 72 hours. | See also: Recent months at Low Isles
Date/Time
EST
Temp

°C
Wind Pressure Rain
since 9am
mm
Weather Cloud Vis
km
Sea
Height
m
Swell
Dir
 
Speed
knots
Gust
knots
hPa Trend Height
m
Period
s
Dir
28/03:00pm 28.2 ESE 19 23 1013.9 - 0.0 Fine Mostly clear 12 - - - -
28/02:30pm 28.2 SE 17 22 1014.2 - 0.0 - - - - - - -
28/02:00pm 28.1 SE 17 21 1014.4 - 0.0 - - - - - - -
28/01:30pm 27.9 SE 18 21 1014.7 - 0.0 - - - - - - -
28/01:00pm 27.5 SE 19 23 1015.1 - 0.0 - - - - - - -
28/12:30pm 27.3 SSE 17 22 1015.5 - 0.0 - - - - - - -
28/12:00pm 26.8 SSE 17 21 1015.9 - 0.0 - - - - - - -
28/11:30am 26.9 SSE 16 19 1016.6 - 0.0 - - - - - - -
28/11:00am 26.5 SSE 16 19 1017.1 - 0.0 - - - - - - -
28/10:30am 26.0 SSE 15 19 1017.5 - 0.0 - - - - - - -
28/10:00am 25.9 SSE 14 17 1017.6 - 0.0 - - - - - - -
28/09:30am 25.5 SSE 15 18 1017.6 - 0.0 - - - - - - -
28/09:00am 25.2 SSE 14 17 1017.2 - 0.0 Haze Partly cloudy 18 - - - -
28/08:30am 24.8 SSE 15 18 1017.2 - 0.0 - - - - - - -
28/08:00am 24.7 SSE 15 17 1017.0 - 0.0 - - - - - - -
28/07:30am 24.7 SSE 13 15 1016.8 - 0.0 - - - - - - -
28/07:00am 24.6 SSE 14 17 1016.5 - 0.0 - - - - - - -
28/06:30am 24.6 SSE 13 16 1016.2 - 0.0 - - - - - - -
28/06:00am 24.5 SSE 13 16 1015.7 - 0.0 - - - - - - -
28/05:30am 24.5 SSE 12 14 1015.5 - 0.0 - - - - - - -
28/05:00am 24.4 SE 11 14 1015.4 - 0.0 - - - - - - -
28/04:30am 24.3 SE 11 16 1015.4 - 0.0 - - - - - - -
28/04:00am 24.5 SSE 13 16 1015.4 - 0.0 - - - - - - -
28/03:30am 24.6 SSE 14 18 1015.2 - 0.0 - - - - - - -
28/03:00am 24.5 SE 12 16 1015.3 - 0.0 - - - - - - -
28/02:30am 24.6 SSE 13 15 1015.5 - 0.0 - - - - - - -
28/02:00am 24.7 SSE 14 16 1015.6 - 0.0 - - - - - - -
28/01:30am 24.8 SSE 14 17 1015.7 - 0.0 - - - - - - -
28/01:00am 24.9 SSE 15 17 1016.1 - 0.0 - - - - - - -
28/12:30am 25.0 SSE 15 17 1016.4 - 0.0 - - - - - - -
 
Date/Time
EST
Temp

°C
Wind Pressure Rain
since 9am
mm
Weather Cloud Vis
km
Sea
Height
m
Swell
Dir
 
Speed
knots
Gust
knots
hPa Trend Height
m
Period
s
Dir
27/11:30pm 25.4 SSE 14 17 1017.0 - 0.0 - - - - - - -
27/11:00pm 25.7 SSE 14 16 1017.1 - 0.0 - - - - - - -
27/10:30pm 25.8 SSE 15 17 1017.2 - 0.0 - - - - - - -
27/10:00pm 25.8 SSE 16 18 1017.3 - 0.0 - - - - - - -
27/09:30pm 25.9 SSE 17 20 1017.4 - 0.0 - - - - - - -
27/09:00pm 26.0 SE 18 21 1017.2 - 0.0 - - - - - - -
27/08:30pm 26.0 SE 17 23 1017.1 - 0.0 - - - - - - -
27/08:00pm 25.9 SE 17 21 1016.6 - 0.0 - - - - - - -
27/07:30pm 26.1 SE 17 20 1016.1 - 0.0 - - - - - - -
27/07:00pm 25.7 SE 15 19 1015.6 - 0.0 - - - - - - -
27/06:30pm 26.0 SE 17 21 1015.2 - 0.0 - - - - - - -
27/06:00pm 26.3 SE 16 19 1014.6 - 0.0 - - - - - - -
27/05:30pm 26.4 SE 16 20 1014.4 - 0.0 - - - - - - -
27/05:00pm 26.7 ESE 15 19 1014.2 - 0.0 - - - - - - -
27/04:30pm 27.0 SE 18 22 1014.0 - 0.0 - - - - - - -
27/04:00pm 27.9 SE 16 20 1014.0 - 0.0 - - - - - - -
27/03:30pm 28.0 SE 17 21 1013.8 - 0.0 - - - - - - -
27/03:00pm 28.1 SE 16 20 1013.6 - 0.0 Haze Mostly clear 10 - - - -
27/02:30pm 28.6 SE 15 20 1013.8 - 0.0 - - - - - - -
27/02:00pm 28.8 SE 17 22 1013.9 - 0.0 - - - - - - -
27/01:30pm 28.6 SE 15 19 1014.3 - 0.0 - - - - - - -
27/01:00pm 28.4 SE 16 20 1014.7 - 0.0 - - - - - - -
27/12:30pm 28.5 SE 16 20 1015.1 - 0.0 - - - - - - -
27/12:00pm 28.5 SE 15 20 1015.1 - 0.0 - - - - - - -
27/11:30am 27.8 SSE 13 17 1015.6 - 0.0 - - - - - - -
27/11:00am 27.8 SSE 13 16 1015.9 - 0.0 - - - - - - -
27/10:30am 27.3 SSE 12 14 1016.2 - 0.0 - - - - - - -
27/10:00am 26.9 SSE 13 16 1016.3 - 0.0 - - - - - - -
27/09:30am 26.5 SSE 14 17 1016.3 - 0.0 - - - - - - -
27/09:00am 26.1 SSE 14 17 1016.1 - 0.0 Haze Mostly clear 25 - - - -
27/08:30am 25.9 SSE 14 16 1015.8 - 0.0 - - - - - - -
27/08:00am 25.8 SSE 15 17 1015.5 - 0.0 - - - - - - -
27/07:30am 25.5 S 13 18 1015.3 - 0.0 - - - - - - -
27/07:00am 25.3 SSW 11 13 1015.1 - 0.0 - - - - - - -
27/06:30am 25.2 SSW 13 14 1014.7 - 0.0 - - - - - - -
27/06:00am 25.0 SSW 10 13 1014.4 - 0.0 - - - - - - -
27/05:30am 25.0 SSW 10 13 1014.3 - 0.0 - - - - - - -
27/05:00am 24.6 SSW 9 11 1014.1 - 0.0 - - - - - - -
27/04:30am 24.5 WSW 11 13 1014.1 - 0.0 - - - - - - -
27/04:00am 24.4 WSW 10 11 1014.0 - 0.0 - - - - - - -
27/03:30am 24.1 WSW 11 12 1014.0 - 0.0 - - - - - - -
27/03:00am 24.7 SW 8 9 1014.1 - 0.0 - - - - - - -
27/02:30am 24.5 SW 9 10 1014.1 - 0.0 - - - - - - -
27/02:00am 24.9 SSE 7 9 1014.1 - 0.0 - - - - - - -
27/01:30am 25.0 WSW 8 9 1014.2 - 0.0 - - - - - - -
27/01:00am 25.0 WSW 8 10 1014.3 - 0.0 - - - - - - -
27/12:30am 24.7 WSW 9 10 1014.6 - 0.0 - - - - - - -
27/12:00am 24.9 WSW 10 11 1014.8 - 0.0 - - - - - - -
 
Date/Time
EST
Temp

°C
Wind Pressure Rain
since 9am
mm
Weather Cloud Vis
km
Sea
Height
m
Swell
Dir
 
Speed
knots
Gust
knots
hPa Trend Height
m
Period
s
Dir
26/11:30pm 25.1 SW 10 12 1015.0 - 0.0 - - - - - - -
26/11:00pm 25.1 WSW 8 10 1015.2 - 0.0 - - - - - - -
26/10:30pm 25.6 S 7 9 1015.3 - 0.0 - - - - - - -
26/10:00pm 25.9 SSE 9 11 1015.4 - 0.0 - - - - - - -
26/09:30pm 26.1 SSE 10 11 1015.4 - 0.0 - - - - - - -
26/09:00pm 26.2 SE 11 14 1015.2 - 0.0 - - - - - - -
26/08:30pm 26.4 SE 14 16 1015.1 - 0.0 - - - - - - -
26/08:00pm 26.2 SE 13 16 1014.8 - 0.0 - - - - - - -
26/07:30pm 26.3 SE 12 17 1014.5 - 0.0 - - - - - - -
26/07:00pm 26.0 ESE 13 18 1014.2 - 0.0 - - - - - - -
26/06:30pm 26.3 ESE 14 17 1013.8 - 0.0 - - - - - - -
26/06:00pm 26.3 ESE 13 17 1013.5 - 0.0 - - - - - - -
26/05:30pm 26.6 ESE 13 18 1013.4 - 0.0 - - - - - - -
26/05:00pm 26.9 ESE 14 17 1013.0 - 0.0 - - - - - - -
26/04:30pm 27.5 ESE 15 19 1012.7 - 0.0 - - - - - - -
26/04:00pm 28.3 ESE 16 21 1012.5 - 0.0 - - - - - - -
26/03:30pm 28.6 ESE 16 20 1012.6 - 0.0 - - - - - - -
26/03:00pm 28.7 SE 16 20 1012.4 - 0.0 Smoke Partly cloudy 10 - - - -
26/02:30pm 28.7 SE 17 21 1012.5 - 0.0 - - - - - - -
26/02:00pm 28.5 SE 19 22 1012.7 - 0.0 - - - - - - -
26/01:30pm 28.6 SE 18 21 1012.7 - 0.0 - - - - - - -
26/01:00pm 28.4 SE 20 23 1012.8 - 0.0 - - - - - - -
26/12:30pm 28.8 SE 18 22 1012.9 - 0.0 - - - - - - -
26/12:00pm 28.6 SSE 14 17 1013.2 - 0.0 - - - - - - -
26/11:30am 28.2 SSE 14 17 1013.8 - 0.0 - - - - - - -
26/11:00am 28.0 SSE 12 14 1014.1 - 0.0 - - - - - - -
26/10:30am 27.8 SE 12 15 1014.5 - 0.0 - - - - - - -
26/10:00am 27.2 SSE 10 11 1014.7 - 0.0 - - - - - - -
26/09:30am 25.8 SW 7 9 1014.5 - 0.0 - - - - - - -
26/09:00am 24.5 WSW 9 10 1014.2 - 0.0 Smoke Partly cloudy 20 - - - -
26/08:30am 24.2 WSW 9 10 1013.9 - 0.0 - - - - - - -
26/08:00am 24.9 WSW 6 8 1013.6 - 0.0 - - - - - - -
26/07:30am 24.2 SW 5 6 1013.4 - 0.0 - - - - - - -
26/07:00am 23.9 WSW 5 6 1013.2 - 0.0 - - - - - - -
26/06:30am 23.9 WSW 7 8 1012.8 - 0.0 - - - - - - -
26/06:00am 24.0 WSW 7 8 1012.1 - 0.0 - - - - - - -
26/05:30am 24.4 W 7 9 1011.9 - 0.0 - - - - - - -
26/05:00am 24.4 W 8 10 1011.5 - 0.0 - - - - - - -
26/04:30am 24.4 W 9 10 1011.1 - 0.0 - - - - - - -
26/04:00am 24.3 W 9 10 1010.9 - 0.0 - - - - - - -
26/03:30am 24.3 W 7 9 1011.0 - 0.0 - - - - - - -
26/03:00am 24.4 W 8 9 1010.8 - 0.0 - - - - - - -
26/02:30am 24.4 W 8 9 1011.0 - 0.0 - - - - - - -
26/02:00am 24.7 WSW 7 8 1011.1 - 0.0 - - - - - - -
26/01:30am 24.7 W 7 8 1011.3 - 0.0 - - - - - - -
26/01:00am 24.7 W 8 10 1011.7 - 0.0 - - - - - - -
26/12:30am 24.9 WSW 8 9 1012.1 - 0.0 - - - - - - -
26/12:00am 25.1 W 8 9 1012.4 - 0.0 - - - - - - -
 
Date/Time
EST
Temp

°C
Wind Pressure Rain
since 9am
mm
Weather Cloud Vis
km
Sea
Height
m
Swell
Dir
 
Speed
knots
Gust
knots
hPa Trend Height
m
Period
s
Dir
25/11:30pm 25.1 WSW 8 9 1012.7 - 0.0 - - - - - - -
25/11:00pm 25.3 WSW 7 8 1012.8 - 0.0 - - - - - - -
25/10:30pm 24.2 NW 3 4 1012.9 - 0.0 - - - - - - -
25/10:00pm 24.4 CALM 0 0 1013.1 - 0.0 - - - - - - -
25/09:30pm 24.5 CALM 0 0 1013.1 - 0.0 - - - - - - -
25/09:00pm 24.6 CALM 0 0 1013.1 - 0.0 - - - - - - -
25/08:30pm 24.4 NE 3 5 1013.0 - 0.0 - - - - - - -
25/08:00pm 24.5 ENE 3 5 1012.7 - 0.0 - - - - - - -
25/07:30pm 24.6 NE 4 5 1012.3 - 0.0 - - - - - - -
25/07:00pm 24.9 ENE 4 5 1011.8 - 0.0 - - - - - - -
25/06:30pm 25.3 E 6 7 1011.3 - 0.0 - - - - - - -
25/06:00pm 25.8 ENE 7 8 1011.0 - 0.0 - - - - - - -
25/05:30pm 26.6 ENE 6 9 1011.0 - 0.0 - - - - - - -
25/05:00pm 27.3 NE 7 9 1010.7 - 0.0 - - - - - - -
25/04:30pm 28.3 ENE 8 10 1010.4 - 0.0 - - - - - - -
25/04:00pm 29.6 ENE 8 10 1010.1 - 0.0 - - - - - - -
25/03:30pm 30.2 E 8 11 1009.7 - 0.0 - - - - - - -

Other Formats:

Comma delimited format used in spreadsheet applications
http://www.bom.gov.au/fwo/IDQ60701/IDQ60701.94285.axf

JavaScript Object Notation format (JSON) in row-major order
http://www.bom.gov.au/fwo/IDQ60701/IDQ60701.94285.json